Time;durP1;ratioP1;P1;durP2;ratioP2;P2;SDS_P1;SDS_P2;PMS_P1;PMS_P2;Temp;Humidity;BMP_temperature;BMP_pressure;BME280_temperature;BME280_humidity;BME280_pressure;Samples;Min_cycle;Max_cycle;Signal;HPM_P1;HPM_P2
2022/09/09 00:00:21;;;;;;;2.00;1.37;;;14.40;99.90;;;;;;5054128;28;20236;-35
2022/09/09 00:03:12;;;;;;;2.80;2.03;;;14.40;99.90;;;;;;5056194;28;20200;-35
2022/09/09 00:05:49;;;;;;;2.30;1.47;;;14.40;99.90;;;;;;5057146;28;20260;-35
2022/09/09 00:08:21;;;;;;;3.77;2.03;;;14.30;99.90;;;;;;5091879;28;20173;-33
2022/09/09 00:10:56;;;;;;;4.90;1.83;;;14.30;99.90;;;;;;5073903;28;20189;-37
2022/09/09 00:13:40;;;;;;;4.10;1.83;;;14.20;99.90;;;;;;5073622;28;20183;-34
2022/09/09 00:16:17;;;;;;;3.40;1.90;;;14.20;99.90;;;;;;5074001;28;20218;-33
2022/09/09 00:18:45;;;;;;;3.03;1.40;;;14.30;99.90;;;;;;5073254;28;20188;-33
2022/09/09 00:21:15;;;;;;;3.43;1.60;;;14.20;99.90;;;;;;5073598;28;20177;-34
2022/09/09 00:23:47;;;;;;;6.20;1.90;;;14.30;99.90;;;;;;5073178;28;20240;-34
2022/09/09 00:26:43;;;;;;;2.50;1.73;;;14.30;99.90;;;;;;5073382;28;20260;-34
2022/09/09 00:29:12;;;;;;;2.10;1.57;;;14.30;99.90;;;;;;5060979;28;20268;-35
2022/09/09 00:31:38;;;;;;;1.60;1.50;;;14.40;99.90;;;;;;5070191;28;20201;-33
2022/09/09 00:34:17;;;;;;;3.13;1.70;;;14.40;99.90;;;;;;5063371;28;20640;-33
2022/09/09 00:36:46;;;;;;;2.17;1.40;;;14.40;99.90;;;;;;5052642;28;20322;-34
2022/09/09 00:39:25;;;;;;;4.07;1.77;;;14.40;99.90;;;;;;5055063;28;20184;-33
2022/09/09 00:42:00;;;;;;;3.13;1.47;;;14.40;99.90;;;;;;5056827;28;20207;-33
2022/09/09 00:44:35;;;;;;;1.40;1.30;;;14.40;99.90;;;;;;5055848;28;20200;-35
2022/09/09 00:47:25;;;;;;;2.43;1.67;;;14.40;99.90;;;;;;5072495;28;20180;-34
2022/09/09 00:50:13;;;;;;;3.87;1.60;;;14.30;99.90;;;;;;5063678;28;20191;-35
2022/09/09 00:52:46;;;;;;;2.67;1.47;;;14.20;99.90;;;;;;5061319;28;20193;-35
2022/09/09 00:55:32;;;;;;;3.57;1.60;;;14.20;99.90;;;;;;5063856;28;20181;-34
2022/09/09 00:57:58;;;;;;;3.33;1.50;;;14.20;99.90;;;;;;5065999;28;20169;-34
2022/09/09 01:00:31;;;;;;;1.97;1.30;;;14.30;99.90;;;;;;5055088;28;20211;-34
2022/09/09 01:03:35;;;;;;;2.33;1.60;;;14.30;99.90;;;;;;5071297;28;20205;-34
2022/09/09 01:06:12;;;;;;;2.27;1.37;;;14.40;99.90;;;;;;5088874;28;20179;-35
2022/09/09 01:08:50;;;;;;;2.73;1.30;;;14.40;99.90;;;;;;5071537;28;20165;-34
2022/09/09 01:11:35;;;;;;;4.63;1.70;;;14.40;99.90;;;;;;5053127;28;20204;-33
2022/09/09 01:14:18;;;;;;;3.77;1.43;;;14.40;99.90;;;;;;5054826;28;20293;-34
2022/09/09 01:16:45;;;;;;;3.70;1.40;;;14.40;99.90;;;;;;5071946;28;20176;-33
2022/09/09 01:19:20;;;;;;;4.17;1.63;;;14.40;99.90;;;;;;5070405;28;20184;-35
2022/09/09 01:22:28;;;;;;;2.73;1.60;;;14.40;99.90;;;;;;5071010;28;20234;-34
2022/09/09 01:25:25;;;;;;;3.27;1.50;;;14.40;99.90;;;;;;5067444;28;20226;-34
2022/09/09 01:28:09;;;;;;;3.33;1.60;;;14.30;99.90;;;;;;5041574;28;20185;-34
2022/09/09 01:30:40;;;;;;;4.90;1.93;;;14.30;99.90;;;;;;5041070;28;20169;-33
2022/09/09 01:33:17;;;;;;;3.20;1.67;;;14.20;99.90;;;;;;5068499;28;20286;-33
2022/09/09 01:35:54;;;;;;;2.50;1.47;;;14.10;99.90;;;;;;5069340;28;20189;-35
2022/09/09 01:38:23;;;;;;;5.47;1.53;;;14.10;99.90;;;;;;5060688;28;20172;-35
2022/09/09 01:40:52;;;;;;;3.93;1.50;;;14.00;99.90;;;;;;5072588;28;20199;-33
2022/09/09 01:43:23;;;;;;;2.83;1.43;;;14.00;99.90;;;;;;5052272;28;20246;-35
2022/09/09 01:45:53;;;;;;;6.13;1.57;;;13.90;99.90;;;;;;5069366;28;20181;-33
2022/09/09 01:48:20;;;;;;;5.57;1.53;;;14.00;99.90;;;;;;5062264;28;20177;-34
2022/09/09 01:50:52;;;;;;;2.40;1.70;;;14.00;99.90;;;;;;5053802;28;20178;-33
2022/09/09 01:53:20;;;;;;;3.57;1.40;;;14.10;99.90;;;;;;5051628;28;20177;-37
2022/09/09 01:56:15;;;;;;;2.50;1.50;;;14.00;99.90;;;;;;5054791;28;20792;-35
2022/09/09 01:58:59;;;;;;;3.47;1.57;;;13.90;99.90;;;;;;5066788;28;20201;-33
2022/09/09 02:01:35;;;;;;;1.23;1.10;;;13.90;99.90;;;;;;5053960;28;20216;-34
2022/09/09 02:04:07;;;;;;;2.83;1.30;;;13.90;99.90;;;;;;5083141;28;20210;-33
2022/09/09 02:06:39;;;;;;;4.33;1.47;;;14.00;99.90;;;;;;5093307;28;20176;-35
2022/09/09 02:09:22;;;;;;;1.93;1.20;;;14.00;99.90;;;;;;5077696;28;20177;-35
2022/09/09 02:11:58;;;;;;;2.40;1.40;;;14.10;99.90;;;;;;5075977;28;20284;-33
2022/09/09 02:14:42;;;;;;;2.07;1.40;;;14.10;99.90;;;;;;5077260;28;20169;-34
2022/09/09 02:17:11;;;;;;;3.87;1.40;;;14.20;99.90;;;;;;5075668;28;20183;-35
2022/09/09 02:20:07;;;;;;;3.17;1.80;;;14.30;99.90;;;;;;5076178;28;20179;-35
2022/09/09 02:22:45;;;;;;;4.00;1.90;;;14.30;99.90;;;;;;5075838;28;20212;-34
2022/09/09 02:25:17;;;;;;;6.33;1.50;;;14.30;99.90;;;;;;5075891;28;20169;-34
2022/09/09 02:27:46;;;;;;;2.37;1.40;;;14.40;99.90;;;;;;5076198;28;20177;-34
2022/09/09 02:30:13;;;;;;;2.87;1.27;;;14.40;99.90;;;;;;5062372;28;20223;-35
2022/09/09 02:32:48;;;;;;;4.33;1.43;;;14.40;99.90;;;;;;5053234;28;20265;-35
2022/09/09 02:35:21;;;;;;;3.20;1.40;;;14.40;99.90;;;;;;5075388;28;20211;-35
2022/09/09 02:37:47;;;;;;;3.87;1.60;;;14.40;99.90;;;;;;5073042;28;20196;-34
2022/09/09 02:40:15;;;;;;;2.97;1.50;;;14.30;99.90;;;;;;5058256;28;20185;-34
2022/09/09 02:42:47;;;;;;;2.60;1.43;;;14.40;99.90;;;;;;5061227;28;20250;-34
2022/09/09 02:45:20;;;;;;;4.03;1.53;;;14.40;99.90;;;;;;5072081;28;20192;-35
2022/09/09 02:48:02;;;;;;;2.73;1.27;;;14.40;99.90;;;;;;5062897;28;20183;-35
2022/09/09 02:50:59;;;;;;;2.10;1.40;;;14.40;99.90;;;;;;5060900;28;20254;-34
2022/09/09 02:53:44;;;;;;;2.67;1.47;;;14.30;99.90;;;;;;5051707;28;20232;-35
2022/09/09 02:56:18;;;;;;;3.10;1.40;;;14.30;99.90;;;;;;5069644;28;20664;-34
2022/09/09 02:58:46;;;;;;;3.93;1.53;;;14.30;99.90;;;;;;5055129;28;20181;-35
2022/09/09 03:01:13;;;;;;;2.70;1.53;;;14.30;99.90;;;;;;5055543;28;20216;-34
2022/09/09 03:03:41;;;;;;;2.63;1.40;;;14.30;99.90;;;;;;5063355;28;20212;-34
2022/09/09 03:06:11;;;;;;;2.57;1.60;;;14.20;99.90;;;;;;5071507;28;20173;-34
2022/09/09 03:08:38;;;;;;;3.93;1.50;;;14.20;99.90;;;;;;5039284;28;20178;-34
2022/09/09 03:11:05;;;;;;;1.83;1.37;;;14.30;99.90;;;;;;5071100;28;20746;-35
2022/09/09 03:13:34;;;;;;;3.83;1.77;;;14.30;99.90;;;;;;5070442;28;20233;-35
2022/09/09 03:16:00;;;;;;;1.90;1.50;;;14.30;99.90;;;;;;5054856;28;20230;-34
2022/09/09 03:18:29;;;;;;;3.97;1.40;;;14.30;99.90;;;;;;5050915;28;20711;-34
2022/09/09 03:20:54;;;;;;;2.73;1.67;;;14.30;99.90;;;;;;5074451;28;20192;-34
2022/09/09 03:23:21;;;;;;;1.43;1.33;;;14.40;99.90;;;;;;5072134;28;20195;-35
2022/09/09 03:25:49;;;;;;;2.93;1.70;;;14.40;99.90;;;;;;5071389;28;20625;-35
2022/09/09 03:28:19;;;;;;;2.00;1.47;;;14.40;99.90;;;;;;5087955;28;20267;-35
2022/09/09 03:30:45;;;;;;;3.53;1.83;;;14.40;99.90;;;;;;5072191;28;20318;-35
2022/09/09 03:33:12;;;;;;;1.77;1.50;;;14.30;99.90;;;;;;5057768;28;20288;-35
2022/09/09 03:35:39;;;;;;;4.27;1.83;;;14.30;99.90;;;;;;5057114;28;20191;-35
2022/09/09 03:38:05;;;;;;;5.17;2.03;;;14.40;99.90;;;;;;5073720;28;20185;-35
2022/09/09 03:40:33;;;;;;;2.63;1.60;;;14.40;99.90;;;;;;5074359;28;20741;-35
2022/09/09 03:42:59;;;;;;;4.67;1.70;;;14.40;99.90;;;;;;5073779;28;20201;-35
2022/09/09 03:45:25;;;;;;;3.63;1.70;;;14.40;99.90;;;;;;5073831;28;20172;-35
2022/09/09 03:47:51;;;;;;;5.60;2.00;;;14.40;99.90;;;;;;5070753;28;20198;-35
2022/09/09 03:50:18;;;;;;;5.87;2.23;;;14.30;99.90;;;;;;5070919;28;20169;-34
2022/09/09 03:52:46;;;;;;;3.10;1.80;;;14.30;99.90;;;;;;5055209;28;20200;-35
2022/09/09 03:55:18;;;;;;;3.70;1.67;;;14.30;99.90;;;;;;5062813;28;20180;-34
2022/09/09 03:57:44;;;;;;;3.70;1.73;;;14.20;99.90;;;;;;5069795;28;20181;-34
2022/09/09 04:00:10;;;;;;;3.27;1.67;;;14.10;99.90;;;;;;5084996;28;20188;-34
2022/09/09 04:02:53;;;;;;;4.87;1.70;;;14.00;99.90;;;;;;5066984;28;20211;-34
2022/09/09 04:05:19;;;;;;;4.07;1.93;;;14.00;99.90;;;;;;5057029;28;20184;-35
2022/09/09 04:07:47;;;;;;;4.40;1.90;;;13.90;99.90;;;;;;5092193;28;20180;-35
2022/09/09 04:10:13;;;;;;;2.53;1.80;;;13.90;99.90;;;;;;5073834;28;20177;-35
2022/09/09 04:12:39;;;;;;;3.67;1.70;;;14.00;99.90;;;;;;5073446;28;20201;-35
2022/09/09 04:15:06;;;;;;;3.83;1.53;;;13.90;99.90;;;;;;5073822;28;20257;-35
2022/09/09 04:17:33;;;;;;;2.40;1.47;;;13.80;99.90;;;;;;5068052;28;20185;-36
2022/09/09 04:19:59;;;;;;;3.63;1.80;;;13.80;99.90;;;;;;5056972;28;20184;-35
2022/09/09 04:22:25;;;;;;;2.80;1.70;;;13.80;99.90;;;;;;5056760;28;20303;-35
2022/09/09 04:24:51;;;;;;;3.93;1.63;;;13.70;99.90;;;;;;5056302;28;20200;-34
2022/09/09 04:27:18;;;;;;;3.47;1.97;;;13.70;99.90;;;;;;5073418;28;20188;-34
2022/09/09 04:29:45;;;;;;;2.10;1.50;;;13.70;99.90;;;;;;5057529;28;20177;-34
2022/09/09 04:32:12;;;;;;;3.83;1.97;;;13.70;99.90;;;;;;5054849;28;20192;-33
2022/09/09 04:34:41;;;;;;;6.00;1.70;;;13.70;99.90;;;;;;5056284;28;20208;-35
2022/09/09 04:37:07;;;;;;;3.93;1.50;;;13.70;99.90;;;;;;5072978;28;20234;-34
2022/09/09 04:39:33;;;;;;;4.37;1.57;;;13.70;99.90;;;;;;5056504;28;20173;-35
2022/09/09 04:42:00;;;;;;;4.47;1.83;;;13.70;99.90;;;;;;5069682;28;20196;-34
2022/09/09 04:44:26;;;;;;;3.50;1.63;;;13.70;99.90;;;;;;5037680;28;20211;-34
2022/09/09 04:46:53;;;;;;;3.17;1.60;;;13.70;99.90;;;;;;5036723;28;20174;-35
2022/09/09 04:49:19;;;;;;;5.57;1.77;;;13.80;99.90;;;;;;5060914;28;20177;-34
2022/09/09 04:51:46;;;;;;;2.87;1.73;;;13.80;99.90;;;;;;5052963;28;20189;-35
2022/09/09 04:54:12;;;;;;;4.57;1.73;;;13.80;99.90;;;;;;5050429;28;20203;-34
2022/09/09 04:56:42;;;;;;;3.77;1.90;;;13.80;99.90;;;;;;5072123;28;20180;-35
2022/09/09 04:59:08;;;;;;;6.27;1.90;;;13.70;99.90;;;;;;5058411;28;20184;-35
2022/09/09 05:01:48;;;;;;;5.07;1.87;;;13.60;99.90;;;;;;5046277;28;20220;-34
2022/09/09 05:04:15;;;;;;;3.90;1.63;;;13.50;99.90;;;;;;5056465;28;20201;-35
2022/09/09 05:06:42;;;;;;;2.47;1.67;;;13.50;99.90;;;;;;5053033;28;20235;-35
2022/09/09 05:09:10;;;;;;;2.97;1.87;;;13.40;99.90;;;;;;5051333;28;20233;-34
2022/09/09 05:11:36;;;;;;;3.20;1.57;;;13.50;99.90;;;;;;5070816;28;20283;-35
2022/09/09 05:14:20;;;;;;;4.97;1.80;;;13.60;99.90;;;;;;5089281;28;20198;-34
2022/09/09 05:16:47;;;;;;;4.70;2.00;;;13.60;99.90;;;;;;5068253;28;20188;-35
2022/09/09 05:19:14;;;;;;;2.87;1.87;;;13.60;99.90;;;;;;5074449;28;20193;-35
2022/09/09 05:21:44;;;;;;;2.90;1.70;;;13.70;99.90;;;;;;5057983;28;20230;-34
2022/09/09 05:24:10;;;;;;;2.97;1.83;;;13.70;99.90;;;;;;5049478;28;20204;-34
2022/09/09 05:26:37;;;;;;;4.70;1.80;;;13.70;99.90;;;;;;5072150;28;20177;-35
2022/09/09 05:29:03;;;;;;;3.63;1.57;;;13.70;99.90;;;;;;5069040;28;20164;-34
2022/09/09 05:31:30;;;;;;;4.50;1.63;;;13.70;99.90;;;;;;5055571;28;20196;-35
2022/09/09 05:33:58;;;;;;;4.43;1.87;;;13.80;99.90;;;;;;5063741;28;20188;-35
2022/09/09 05:36:25;;;;;;;2.77;1.90;;;13.90;99.90;;;;;;5073528;28;20172;-35
2022/09/09 05:38:54;;;;;;;5.47;1.63;;;13.90;99.90;;;;;;5074344;28;20177;-34
2022/09/09 05:41:22;;;;;;;5.23;1.90;;;13.90;99.90;;;;;;5075009;28;20211;-34
2022/09/09 05:43:49;;;;;;;5.23;1.80;;;13.80;99.90;;;;;;5072701;28;20283;-34
2022/09/09 05:46:25;;;;;;;2.13;1.53;;;13.80;99.90;;;;;;5075876;28;20212;-35
2022/09/09 05:48:54;;;;;;;3.90;1.80;;;13.90;99.90;;;;;;5067051;28;20183;-35
2022/09/09 05:51:29;;;;;;;3.40;1.90;;;13.90;99.90;;;;;;5063152;28;20292;-35
2022/09/09 05:54:00;;;;;;;3.13;1.70;;;14.00;99.90;;;;;;5038988;28;20181;-34
2022/09/09 05:56:29;;;;;;;4.43;1.80;;;14.10;99.90;;;;;;5040011;28;20177;-35
2022/09/09 05:58:59;;;;;;;7.30;1.80;;;14.10;99.90;;;;;;5039432;28;20273;-35
2022/09/09 06:01:33;;;;;;;3.50;1.70;;;14.10;99.90;;;;;;5040560;28;20240;-34
2022/09/09 06:04:00;;;;;;;3.10;2.00;;;14.10;99.90;;;;;;5080481;28;20211;-35
2022/09/09 06:06:39;;;;;;;2.50;1.97;;;14.10;99.90;;;;;;5075247;28;20177;-34
2022/09/09 06:09:11;;;;;;;2.00;1.43;;;14.10;99.90;;;;;;5056281;28;20184;-34
2022/09/09 06:11:40;;;;;;;3.93;1.90;;;14.10;99.90;;;;;;5056194;28;20302;-35
2022/09/09 06:14:07;;;;;;;3.80;1.77;;;14.20;99.90;;;;;;5055883;28;20207;-34
2022/09/09 06:16:34;;;;;;;5.20;1.63;;;14.30;99.90;;;;;;5073113;28;20170;-34
2022/09/09 06:19:03;;;;;;;2.67;1.43;;;14.40;99.90;;;;;;5055684;28;20699;-34
2022/09/09 06:21:38;;;;;;;3.47;1.57;;;14.50;99.90;;;;;;5056057;28;20197;-35
2022/09/09 06:24:10;;;;;;;2.80;1.60;;;14.60;99.90;;;;;;5039288;28;20205;-35
2022/09/09 06:26:41;;;;;;;4.33;1.70;;;14.70;99.90;;;;;;5057007;28;20196;-34
2022/09/09 06:29:10;;;;;;;2.57;1.40;;;14.80;99.90;;;;;;5078964;28;20173;-35
2022/09/09 06:31:37;;;;;;;4.63;1.50;;;14.90;99.90;;;;;;5072581;28;20261;-35
2022/09/09 06:34:15;;;;;;;3.33;1.47;;;15.00;99.90;;;;;;5075033;28;20180;-35
2022/09/09 06:36:46;;;;;;;1.90;1.40;;;15.10;99.90;;;;;;5055953;28;20181;-35
2022/09/09 06:39:12;;;;;;;2.90;1.30;;;15.20;99.90;;;;;;5074169;28;20203;-34
2022/09/09 06:41:39;;;;;;;3.97;1.50;;;15.30;99.90;;;;;;5064625;28;20727;-35
2022/09/09 06:44:11;;;;;;;2.60;1.60;;;15.40;99.90;;;;;;5073230;28;20243;-35
2022/09/09 06:46:41;;;;;;;2.17;1.43;;;15.50;99.90;;;;;;5042458;28;20157;-35
2022/09/09 06:49:09;;;;;;;3.07;1.50;;;15.50;99.90;;;;;;5056017;28;20187;-35
2022/09/09 06:51:42;;;;;;;4.20;1.47;;;15.60;99.90;;;;;;5060742;28;20188;-35
2022/09/09 06:54:09;;;;;;;3.03;1.50;;;15.70;99.90;;;;;;5098674;22;20253;-28
2022/09/09 06:56:37;;;;;;;2.23;1.77;;;15.70;99.90;;;;;;5050791;28;20180;-30
2022/09/09 06:59:09;;;;;;;4.30;1.57;;;15.80;99.90;;;;;;5036153;28;20182;-28
2022/09/09 07:01:37;;;;;;;2.90;1.50;;;15.80;99.90;;;;;;5051407;28;20206;-28
2022/09/09 07:04:08;;;;;;;5.00;1.77;;;15.90;99.90;;;;;;5035397;28;20263;-29
2022/09/09 07:06:38;;;;;;;3.60;1.33;;;16.00;99.90;;;;;;5042292;22;20720;-35
2022/09/09 07:09:09;;;;;;;3.23;1.53;;;16.10;99.90;;;;;;5012685;28;20233;-34
2022/09/09 07:11:44;;;;;;;3.67;1.77;;;16.20;99.90;;;;;;5015631;28;20204;-35
2022/09/09 07:14:13;;;;;;;2.30;1.63;;;16.30;99.90;;;;;;5015148;28;20192;-34
2022/09/09 07:16:41;;;;;;;2.17;1.43;;;16.40;99.90;;;;;;5014588;28;20209;-35
2022/09/09 07:19:07;;;;;;;4.03;1.60;;;16.50;99.90;;;;;;4996394;28;20222;-35
2022/09/09 07:21:33;;;;;;;4.60;1.60;;;16.60;99.90;;;;;;5012736;28;20285;-34
2022/09/09 07:24:00;;;;;;;2.70;1.50;;;16.60;99.90;;;;;;4995473;28;20221;-35
2022/09/09 07:26:29;;;;;;;4.47;1.30;;;16.70;99.90;;;;;;5008034;28;20209;-34
2022/09/09 07:28:57;;;;;;;3.63;1.43;;;16.70;99.90;;;;;;5015026;28;20178;-36
2022/09/09 07:31:32;;;;;;;3.10;1.30;;;16.90;99.90;;;;;;5013118;28;20225;-34
2022/09/09 07:33:59;;;;;;;4.13;1.33;;;17.00;99.90;;;;;;5014852;28;20189;-34
2022/09/09 07:36:31;;;;;;;4.53;1.50;;;17.00;99.90;;;;;;5019047;28;20257;-34
2022/09/09 07:39:00;;;;;;;2.75;1.48;;;17.10;99.90;;;;;;5016498;28;20193;-34
2022/09/09 07:41:45;;;;;;;4.23;1.53;;;17.10;99.90;;;;;;5031155;28;20724;-36
2022/09/09 07:44:16;;;;;;;3.92;1.70;;;17.20;99.90;;;;;;5013237;28;20198;-34
2022/09/09 07:46:45;;;;;;;3.67;1.70;;;17.40;99.90;;;;;;5030880;28;20233;-34
2022/09/09 07:49:14;;;;;;;4.78;1.60;;;17.50;99.90;;;;;;4997059;28;20262;-35
2022/09/09 07:51:43;;;;;;;3.20;2.00;;;17.50;99.90;;;;;;5000281;28;20241;-34
2022/09/09 07:54:12;;;;;;;2.63;1.52;;;17.40;99.90;;;;;;5014703;28;20554;-35
2022/09/09 07:56:42;;;;;;;2.53;1.45;;;17.40;99.90;;;;;;5013423;28;20264;-34
2022/09/09 07:59:10;;;;;;;6.67;1.80;;;17.50;99.90;;;;;;5000282;28;20175;-34
2022/09/09 08:01:43;;;;;;;3.10;1.40;;;17.40;99.90;;;;;;5011806;28;20210;-35
2022/09/09 08:04:16;;;;;;;3.28;1.80;;;17.40;99.90;;;;;;4995091;28;20210;-34
2022/09/09 08:06:48;;;;;;;4.93;1.88;;;17.40;99.90;;;;;;4998494;28;20225;-35
2022/09/09 08:09:17;;;;;;;3.20;1.55;;;17.40;99.90;;;;;;5002889;28;20207;-34
2022/09/09 08:11:43;;;;;;;3.67;1.88;;;17.40;99.90;;;;;;4992182;28;20211;-34
2022/09/09 08:14:11;;;;;;;3.73;1.93;;;17.40;99.90;;;;;;4999227;28;20190;-36
2022/09/09 08:16:41;;;;;;;3.87;1.80;;;17.50;99.90;;;;;;5002534;28;20778;-34
2022/09/09 08:19:07;;;;;;;2.60;1.52;;;17.60;99.90;;;;;;5005796;28;20180;-34
2022/09/09 08:21:36;;;;;;;4.28;1.40;;;17.70;99.90;;;;;;4992095;28;20257;-35
2022/09/09 08:24:04;;;;;;;2.45;1.50;;;17.70;99.90;;;;;;4990085;28;20210;-34
2022/09/09 08:26:37;;;;;;;2.10;1.10;;;17.80;99.90;;;;;;4985458;28;20227;-35
2022/09/09 08:29:05;;;;;;;2.33;1.30;;;17.90;99.90;;;;;;5002752;28;20737;-36
2022/09/09 08:31:36;;;;;;;4.53;1.52;;;18.00;99.90;;;;;;5004690;28;20190;-35
2022/09/09 08:34:04;;;;;;;1.73;1.40;;;18.00;99.90;;;;;;5004411;28;20202;-34
2022/09/09 08:36:33;;;;;;;3.20;1.27;;;18.10;99.90;;;;;;4998489;28;20221;-35
2022/09/09 08:39:01;;;;;;;3.10;1.42;;;18.10;99.90;;;;;;5004038;28;20265;-34
2022/09/09 08:42:02;;;;;;;3.30;1.42;;;18.20;99.90;;;;;;4988172;28;20238;-35
2022/09/09 08:44:37;;;;;;;3.25;1.02;;;18.20;99.90;;;;;;5007984;28;20268;-35
2022/09/09 08:47:55;;;;;;;2.33;1.33;;;18.30;99.90;;;;;;5025295;28;20199;-36
2022/09/09 08:50:38;;;;;;;2.70;1.20;;;18.30;99.90;;;;;;5010091;28;20168;-35
2022/09/09 08:53:32;;;;;;;4.28;1.50;;;18.50;99.90;;;;;;5009271;28;20184;-34
2022/09/09 08:56:24;;;;;;;2.65;1.25;;;18.80;99.90;;;;;;4994762;28;20210;-35
2022/09/09 08:58:56;;;;;;;3.35;1.13;;;19.20;99.90;;;;;;5018331;28;20175;-34
2022/09/09 09:02:03;;;;;;;3.85;1.30;;;19.40;99.90;;;;;;5025532;28;20182;-34
2022/09/09 09:05:17;;;;;;;4.53;1.10;;;19.60;99.90;;;;;;4998068;28;20260;-35
2022/09/09 09:08:13;;;;;;;3.67;1.05;;;19.80;99.90;;;;;;5029025;28;20190;-35
2022/09/09 09:10:48;;;;;;;2.53;0.90;;;19.90;99.90;;;;;;5030445;28;20181;-36
2022/09/09 09:13:25;;;;;;;2.78;1.10;;;20.10;99.90;;;;;;5029667;28;20178;-34
2022/09/09 09:16:06;;;;;;;3.15;1.00;;;20.30;99.90;;;;;;5013171;28;20208;-34
2022/09/09 09:18:33;;;;;;;3.10;1.05;;;20.30;99.90;;;;;;4999478;28;20183;-35
2022/09/09 09:21:30;;;;;;;2.53;1.05;;;20.40;99.90;;;;;;4991005;28;20175;-35
2022/09/09 09:24:00;;;;;;;2.00;1.00;;;20.60;99.90;;;;;;5005017;28;20207;-36
2022/09/09 09:26:35;;;;;;;2.80;1.17;;;20.70;99.90;;;;;;4989950;28;20238;-36
2022/09/09 09:29:11;;;;;;;4.05;1.30;;;20.80;99.90;;;;;;4999384;28;20194;-38
2022/09/09 09:31:37;;;;;;;3.17;0.95;;;20.90;99.90;;;;;;5001011;28;20182;-36
2022/09/09 09:34:03;;;;;;;3.95;1.02;;;20.90;99.90;;;;;;5013693;28;20187;-35
2022/09/09 09:36:35;;;;;;;2.70;1.20;;;20.90;99.90;;;;;;4991213;28;20211;-36
2022/09/09 09:39:05;;;;;;;4.03;1.10;;;21.00;99.90;;;;;;5004176;28;20187;-36
2022/09/09 09:41:41;;;;;;;3.10;1.05;;;21.20;99.90;;;;;;4992022;28;20187;-37
2022/09/09 09:44:28;;;;;;;3.70;1.20;;;21.30;99.90;;;;;;5002279;28;20195;-36
2022/09/09 09:47:07;;;;;;;4.40;1.23;;;21.20;99.90;;;;;;4988328;28;20226;-35
2022/09/09 09:49:33;;;;;;;2.58;1.17;;;21.10;99.90;;;;;;5003027;28;20263;-36
2022/09/09 09:52:04;;;;;;;1.70;1.00;;;21.20;99.90;;;;;;4991909;28;20202;-36
2022/09/09 09:54:38;;;;;;;2.25;1.02;;;21.30;99.90;;;;;;5004574;28;20188;-36
2022/09/09 09:57:17;;;;;;;2.60;1.00;;;21.40;99.90;;;;;;4998818;28;20207;-36
2022/09/09 09:59:46;;;;;;;3.30;1.17;;;21.30;99.90;;;;;;5025244;28;20280;-36
2022/09/09 10:02:26;;;;;;;3.80;0.90;;;21.30;99.90;;;;;;5007860;28;20182;-38
2022/09/09 10:05:25;;;;;;;1.85;1.05;;;21.20;99.90;;;;;;5009143;28;20210;-36
2022/09/09 10:08:13;;;;;;;4.93;1.15;;;21.30;99.90;;;;;;5008364;28;20184;-36
2022/09/09 10:11:10;;;;;;;3.35;1.17;;;21.50;99.90;;;;;;5025851;28;20207;-36
2022/09/09 10:14:10;;;;;;;3.22;1.20;;;21.50;99.90;;;;;;5009137;28;20614;-37
2022/09/09 10:16:54;;;;;;;2.90;0.93;;;21.50;99.90;;;;;;5009147;28;20203;-36
2022/09/09 10:19:28;;;;;;;1.95;0.90;;;21.60;99.90;;;;;;5006300;28;20199;-38
2022/09/09 10:22:27;;;;;;;3.53;1.33;;;21.60;99.90;;;;;;4990391;28;20234;-35
2022/09/09 10:25:02;;;;;;;4.93;1.48;;;21.60;99.90;;;;;;4976790;28;20184;-36
2022/09/09 10:27:49;;;;;;;3.10;1.05;;;21.90;99.90;;;;;;4992990;28;20232;-35
2022/09/09 10:30:37;;;;;;;4.93;1.10;;;22.00;99.90;;;;;;4993161;28;20735;-35
2022/09/09 10:33:09;;;;;;;4.05;0.95;;;22.10;99.90;;;;;;5004511;28;20195;-35
2022/09/09 10:35:51;;;;;;;2.38;0.90;;;22.40;99.90;;;;;;5014639;28;20206;-35
2022/09/09 10:38:43;;;;;;;2.72;0.93;;;22.60;99.90;;;;;;5004187;28;20179;-35
2022/09/09 10:41:45;;;;;;;1.90;1.00;;;22.50;99.90;;;;;;5010480;28;20266;-35
2022/09/09 10:44:23;;;;;;;1.83;0.93;;;22.40;99.90;;;;;;5008952;28;20227;-36
2022/09/09 10:47:10;;;;;;;2.65;1.10;;;22.70;99.90;;;;;;4992334;28;20254;-35
2022/09/09 10:50:04;;;;;;;2.08;1.08;;;22.90;99.90;;;;;;4976449;28;20180;-35
2022/09/09 10:52:52;;;;;;;5.28;1.23;;;23.00;99.90;;;;;;4976801;28;20211;-36
2022/09/09 10:55:20;;;;;;;3.08;0.90;;;23.20;99.90;;;;;;5010647;28;20243;-36
2022/09/09 10:57:54;;;;;;;2.05;0.95;;;23.00;99.90;;;;;;5011844;28;20183;-35
2022/09/09 11:00:27;;;;;;;1.05;0.70;;;22.90;99.90;;;;;;5012185;28;20183;-35
2022/09/09 11:03:03;;;;;;;2.00;0.90;;;22.60;99.90;;;;;;5012305;28;20218;-35
2022/09/09 11:05:46;;;;;;;1.58;0.85;;;22.20;99.90;;;;;;5012153;28;20199;-36
2022/09/09 11:08:20;;;;;;;2.95;0.80;;;22.10;99.90;;;;;;4995792;28;20250;-35
2022/09/09 11:10:55;;;;;;;2.33;1.00;;;21.90;99.90;;;;;;4995595;28;20179;-35
2022/09/09 11:13:31;;;;;;;3.25;0.80;;;21.80;99.90;;;;;;4995661;28;20231;-36
2022/09/09 11:16:35;;;;;;;3.45;1.00;;;21.50;99.90;;;;;;5011935;28;20206;-36
2022/09/09 11:19:37;;;;;;;2.22;1.27;;;21.40;99.90;;;;;;5003066;28;20192;-35
2022/09/09 11:22:07;;;;;;;2.25;1.08;;;21.30;99.90;;;;;;5010741;28;20189;-35
2022/09/09 11:24:35;;;;;;;1.13;0.70;;;21.30;99.90;;;;;;5011680;28;20203;-36
2022/09/09 11:27:17;;;;;;;2.80;0.65;;;21.50;99.90;;;;;;4995889;28;20245;-34
2022/09/09 11:30:02;;;;;;;1.58;0.77;;;21.70;99.90;;;;;;5011746;28;20185;-34
2022/09/09 11:32:54;;;;;;;0.95;0.50;;;22.00;99.90;;;;;;5011820;28;20175;-35
2022/09/09 11:35:51;;;;;;;2.78;0.80;;;22.10;99.90;;;;;;5020104;28;20195;-35
2022/09/09 11:38:27;;;;;;;1.55;0.60;;;22.40;99.90;;;;;;4991797;28;20641;-35
2022/09/09 11:41:00;;;;;;;2.75;0.70;;;22.60;99.90;;;;;;4987315;28;20214;-34
2022/09/09 11:43:38;;;;;;;1.55;0.68;;;23.00;99.90;;;;;;5011039;28;20219;-34
2022/09/09 11:46:04;;;;;;;1.80;0.70;;;23.30;99.90;;;;;;5010796;28;20202;-35
2022/09/09 11:48:38;;;;;;;1.60;0.70;;;23.40;99.90;;;;;;5012009;28;20183;-35
2022/09/09 11:51:10;;;;;;;1.65;0.63;;;23.40;99.90;;;;;;5009337;28;20185;-34
2022/09/09 11:53:51;;;;;;;3.83;0.93;;;23.50;99.90;;;;;;5002439;28;20218;-35
2022/09/09 11:56:32;;;;;;;2.80;0.80;;;23.70;99.90;;;;;;4994472;28;20302;-34
2022/09/09 11:59:05;;;;;;;2.35;0.80;;;23.80;99.90;;;;;;4994223;28;20186;-35
2022/09/09 12:01:41;;;;;;;1.98;0.80;;;23.80;99.90;;;;;;4994236;28;20206;-35
2022/09/09 12:04:21;;;;;;;3.60;0.80;;;23.90;99.90;;;;;;4998485;28;20241;-35
2022/09/09 12:07:00;;;;;;;2.78;0.80;;;23.80;99.90;;;;;;4999041;28;20226;-35
2022/09/09 12:09:51;;;;;;;4.03;0.90;;;23.80;99.90;;;;;;5011844;28;20186;-34
2022/09/09 12:12:38;;;;;;;3.50;0.80;;;23.80;99.90;;;;;;4999178;28;20180;-34
2022/09/09 12:15:07;;;;;;;4.57;1.00;;;23.50;99.90;;;;;;5001528;28;20171;-34
2022/09/09 12:17:51;;;;;;;3.28;0.90;;;23.20;99.90;;;;;;5004975;28;20171;-34
2022/09/09 12:20:33;;;;;;;3.17;0.98;;;22.90;99.90;;;;;;5008785;28;20199;-34
2022/09/09 12:23:16;;;;;;;3.55;1.25;;;22.80;99.90;;;;;;4982940;28;20200;-35
2022/09/09 12:26:13;;;;;;;2.28;0.73;;;22.80;99.90;;;;;;5009432;28;20187;-35
2022/09/09 12:28:55;;;;;;;2.17;0.80;;;23.10;99.90;;;;;;5005325;28;20186;-35
2022/09/09 12:31:47;;;;;;;1.65;0.70;;;23.20;99.90;;;;;;5010825;28;20171;-34
2022/09/09 12:34:29;;;;;;;1.35;0.90;;;23.10;99.90;;;;;;4984281;28;20278;-34
2022/09/09 12:37:02;;;;;;;3.13;1.13;;;23.10;99.90;;;;;;5002559;28;20207;-34
2022/09/09 12:39:50;;;;;;;3.45;0.80;;;22.90;99.90;;;;;;4999956;28;20258;-34
2022/09/09 12:42:18;;;;;;;3.40;0.80;;;22.60;99.90;;;;;;5012996;28;20195;-34
2022/09/09 12:44:55;;;;;;;3.60;1.00;;;22.20;99.90;;;;;;5011602;28;20226;-34
2022/09/09 12:47:30;;;;;;;2.40;0.80;;;22.00;99.90;;;;;;4986643;28;20178;-34
2022/09/09 12:49:57;;;;;;;2.97;1.13;;;21.60;99.90;;;;;;5002701;28;20451;-35
2022/09/09 12:52:35;;;;;;;2.90;0.73;;;21.30;99.90;;;;;;5024312;28;20182;-34
2022/09/09 12:55:06;;;;;;;2.10;0.80;;;21.10;99.90;;;;;;4984367;28;20185;-34
2022/09/09 12:57:37;;;;;;;3.97;0.85;;;21.10;99.90;;;;;;4993735;28;20202;-34
2022/09/09 13:00:18;;;;;;;1.92;0.77;;;21.00;99.90;;;;;;4994900;28;20198;-34
2022/09/09 13:02:54;;;;;;;3.35;1.17;;;21.40;99.90;;;;;;5010807;28;20215;-35
2022/09/09 13:05:34;;;;;;;1.92;0.88;;;21.70;99.90;;;;;;4991905;28;20238;-38
2022/09/09 13:08:05;;;;;;;3.65;1.00;;;22.10;99.90;;;;;;5011029;28;20652;-36
2022/09/09 13:10:35;;;;;;;3.78;0.90;;;22.30;99.90;;;;;;5009951;28;20180;-38
2022/09/09 13:13:02;;;;;;;3.58;1.30;;;22.40;99.90;;;;;;5009878;28;20210;-38
2022/09/09 13:15:29;;;;;;;3.75;0.90;;;22.70;99.90;;;;;;4998973;28;20195;-38
2022/09/09 13:18:10;;;;;;;1.80;0.90;;;22.80;99.90;;;;;;5017159;28;20191;-36
2022/09/09 13:20:37;;;;;;;2.47;0.80;;;23.00;99.90;;;;;;5010918;28;20254;-37
2022/09/09 13:23:03;;;;;;;2.15;0.90;;;22.80;99.90;;;;;;5009430;28;20290;-37
2022/09/09 13:25:30;;;;;;;2.72;0.75;;;22.70;99.90;;;;;;5011049;28;20202;-36